Aérodrome :
LOGIN :

S'inscrire | Disclaimer

   EN    FR    IT 

 










Légende :    VFR   VFR Marginal   IFR   IFR Intensif   IFR Très Intensif
Visi : 
Plafond : 
>= 8 km
>= 3000ft
5 à 8 km
1000 à 3000 ft
1500m à 5 km
500 à 1000 ft
800 à 1500m
200 à 500 ft
< 800m
< 200 ft
Symboles :   Orages  Brouillard  Fortes neiges  Fortes précipitations  Vent > 20 kt
SIGMETs :   Divers  Orages  Givrage  Turbulence  Onde Orograph.  Cendres Volcan.






- Altitude de l'aérodrome : 1416 ft
- Code IATA : ZRH


LSZH - Zurich

DERNIER METAR :
  • 221050Z VRB02KT 9999 FEW010 BKN018 14/11 Q1024 NOSIG

METARs EXPIRÉS :
  • 221020Z 02004KT 9999 FEW007 SCT009 BKN020 13/11 Q1024 NOSIG
  • 220950Z 32004KT 290V020 6000 FEW006 SCT011 BKN018 13/12 Q1024 NOSIG
  • 220920Z 32004KT 5000 BR SCT007 BKN018 13/11 Q1024 NOSIG
  • 220850Z 34004KT 4000 BR SCT008 OVC014 13/11 Q1024 BECMG OVC016
  • 220820Z 34003KT 4200 FEW008 BKN015 13/12 Q1024 BECMG BKN013

TAF TAF LSZH
Valide du 22 à 09h jusqu'au 23 à 15h UTC


220825Z 2209/2315 VRB03KT 4000 FEW008 BKN014 TX16/2214Z TN10/2305Z TX18/2314Z
BECMG 2209/2212 05005KT 8000 BKN018
BECMG 2213/2216 VRB03KT
BECMG 2219/2222 4000 BR BKN009
BECMG 2222/2301 BKN004
PROB30 2301/2307 0600 FG VV002
BECMG 2307/2310 04005KT 8000 BKN009
BECMG 2310/2313 SCT014
ATIS : +41 43 816 2295 (DEP) +41 43 816 2294 (ARR)



MET'MAP, la Météo Aéronautique d'un coup d'oeil ! - Copyright ORBIFLY Décembre 2007 - Disclaimer

ORBIFLY MET'MAP TEAM :

Programmation & Développement : Alexandra Zaïnal
Conception & Développement : Baudouin d'Aumeries
Co-Programmation & Développement : Marc-Olivier Méhu
Soutien technique & logistique : Manuel Goepfert

Contact : metmap@orbifly.com




SOURCES & CREDITS :

   NOAA